createdAt,value
2023-01-12T00:04:57.347Z,7.65
2023-01-12T00:11:05.884Z,7.67
2023-01-12T00:14:37.698Z,7.66
2023-01-12T00:17:50.024Z,7.63
2023-01-12T00:23:33.932Z,7.59
2023-01-12T00:26:33.105Z,7.57
2023-01-12T00:29:05.851Z,7.51
2023-01-12T00:31:57.613Z,7.49
2023-01-12T00:34:46.882Z,7.44
2023-01-12T00:37:23.315Z,7.42
2023-01-12T00:40:06.813Z,7.32
2023-01-12T00:43:02.622Z,7.34
2023-01-12T00:45:49.316Z,7.29
2023-01-12T00:48:59.238Z,7.26
2023-01-12T00:52:05.447Z,7.19
2023-01-12T00:55:02.233Z,7.23
2023-01-12T00:57:48.591Z,7.16
2023-01-12T01:06:35.938Z,7.19
2023-01-12T01:12:45.787Z,7.13
2023-01-12T01:15:17.887Z,7.03
2023-01-12T01:18:00.512Z,7.15
2023-01-12T01:20:51.313Z,7.14
2023-01-12T01:23:37.457Z,7.14
2023-01-12T01:32:10.022Z,7.18
2023-01-12T01:35:02.477Z,7.21
2023-01-12T01:37:59.087Z,7.24
2023-01-12T01:40:35.273Z,7.25
2023-01-12T01:43:09.433Z,7.27
2023-01-12T01:45:58.011Z,7.27
2023-01-12T01:49:11.176Z,7.28
2023-01-12T01:52:13.025Z,7.30
2023-01-12T02:01:29.143Z,7.45
2023-01-12T02:07:17.501Z,7.47
2023-01-12T02:16:40.048Z,7.58
2023-01-12T02:19:50.448Z,7.61
2023-01-12T02:22:55.513Z,7.64
2023-01-12T02:25:52.774Z,7.66
2023-01-12T02:28:44.877Z,7.67
2023-01-12T02:32:11.415Z,7.68
2023-01-12T02:38:23.382Z,7.70
2023-01-12T02:41:29.083Z,7.69
2023-01-12T02:44:14.781Z,7.68
2023-01-12T02:50:27.511Z,7.64
2023-01-12T02:53:40.954Z,7.68
2023-01-12T02:56:28.160Z,7.64
2023-01-12T02:59:05.093Z,7.61
2023-01-12T03:01:53.554Z,7.68
2023-01-12T03:04:28.689Z,7.69
2023-01-12T03:07:27.927Z,7.71
2023-01-12T03:10:16.659Z,7.70
2023-01-12T03:12:56.502Z,7.74
2023-01-12T03:15:31.523Z,7.75
2023-01-12T03:18:15.008Z,7.78
2023-01-12T03:24:05.269Z,7.82
2023-01-12T03:26:43.215Z,7.84
2023-01-12T03:29:31.726Z,7.84
2023-01-12T03:32:01.833Z,7.86
2023-01-12T03:34:48.914Z,7.85
2023-01-12T03:38:05.936Z,7.78
2023-01-12T03:40:53.768Z,7.81
2023-01-12T03:47:50.978Z,7.82
2023-01-12T03:50:57.784Z,7.79
2023-01-12T03:53:58.369Z,7.81
2023-01-12T03:57:15.954Z,7.77
2023-01-12T03:59:43.575Z,7.78
2023-01-12T04:02:20.449Z,7.80
2023-01-12T04:05:30.566Z,7.80
2023-01-12T04:08:23.695Z,7.81
2023-01-12T04:11:07.602Z,7.79
2023-01-12T04:13:52.737Z,7.78
2023-01-12T04:16:30.998Z,7.77
2023-01-12T04:19:06.657Z,7.79
2023-01-12T04:22:11.524Z,7.79
2023-01-12T04:24:48.123Z,7.81
2023-01-12T04:27:18.881Z,7.80
2023-01-12T04:29:55.029Z,7.80
2023-01-12T04:32:47.850Z,7.80
2023-01-12T04:35:30.612Z,7.81
2023-01-12T04:38:17.396Z,7.79
2023-01-12T04:41:38.984Z,7.79
2023-01-12T04:44:08.692Z,7.75
2023-01-12T04:46:49.369Z,7.80
2023-01-12T04:49:44.156Z,7.78
2023-01-12T04:55:15.302Z,7.80
2023-01-12T04:57:57.364Z,7.81
2023-01-12T05:00:30.674Z,7.82
2023-01-12T05:03:19.442Z,7.80
2023-01-12T05:05:50.035Z,7.81
2023-01-12T05:08:44.392Z,7.81
2023-01-12T05:11:13.573Z,7.78
2023-01-12T05:13:49.075Z,7.76
2023-01-12T05:16:29.062Z,7.76
2023-01-12T05:19:07.833Z,7.74
2023-01-12T05:21:48.790Z,7.71
2023-01-12T05:24:49.888Z,7.68
2023-01-12T05:27:27.916Z,7.66
2023-01-12T05:30:16.590Z,7.67
2023-01-12T05:32:54.839Z,7.69
2023-01-12T05:36:08.918Z,7.69
2023-01-12T05:38:42.810Z,7.72
2023-01-12T05:41:24.111Z,7.73
2023-01-12T05:43:55.055Z,7.74
2023-01-12T05:46:38.544Z,7.72
2023-01-12T05:49:24.014Z,7.74
2023-01-12T05:52:21.434Z,7.78
2023-01-12T05:54:54.303Z,7.81
2023-01-12T05:57:42.311Z,7.83
2023-01-12T06:00:15.677Z,7.86
2023-01-12T06:03:00.820Z,7.88
2023-01-12T06:05:31.503Z,7.84
2023-01-12T06:08:07.027Z,7.81
2023-01-12T06:10:39.967Z,7.82
2023-01-12T06:13:35.771Z,7.82
2023-01-12T06:16:16.452Z,7.85
2023-01-12T06:21:43.852Z,7.86
2023-01-12T06:24:49.283Z,7.89
2023-01-12T06:27:24.561Z,7.88
2023-01-12T06:30:02.816Z,7.88
2023-01-12T06:32:42.751Z,7.90
2023-01-12T06:35:24.989Z,7.93
2023-01-12T06:38:12.153Z,7.95
2023-01-12T06:40:59.645Z,7.93
2023-01-12T06:43:56.803Z,7.96
2023-01-12T06:47:00.503Z,8.04
2023-01-12T06:49:40.115Z,8.03
2023-01-12T06:52:16.671Z,8.02
2023-01-12T06:55:07.588Z,8.04
2023-01-12T06:57:52.923Z,8.06
2023-01-12T07:00:44.211Z,8.05
2023-01-12T07:03:24.367Z,8.05
2023-01-12T07:06:05.765Z,8.04
2023-01-12T07:08:50.917Z,8.03
2023-01-12T07:11:55.635Z,8.01
2023-01-12T07:14:28.974Z,8.03
2023-01-12T07:17:18.211Z,8.04
2023-01-12T07:19:51.792Z,8.03
2023-01-12T07:25:17.838Z,8.10
2023-01-12T07:28:27.146Z,8.14
2023-01-12T07:31:29.853Z,8.19
2023-01-12T07:34:08.862Z,8.20
2023-01-12T07:36:46.904Z,8.18
2023-01-12T07:39:28.787Z,8.22
2023-01-12T07:42:29.992Z,8.26
2023-01-12T07:45:08.791Z,8.27
2023-01-12T07:48:00.906Z,8.27
2023-01-12T07:50:45.525Z,8.28
2023-01-12T07:53:30.148Z,8.26
2023-01-12T07:56:21.759Z,8.26
2023-01-12T07:58:56.013Z,8.28
2023-01-12T08:01:32.712Z,8.28
2023-01-12T08:04:15.149Z,8.28
2023-01-12T08:06:48.703Z,8.29
2023-01-12T08:09:25.678Z,8.35
2023-01-12T08:11:59.108Z,8.34
2023-01-12T08:20:31.813Z,8.43
2023-01-12T08:23:11.921Z,8.41
2023-01-12T08:25:49.507Z,8.43
2023-01-12T08:28:33.562Z,8.47
2023-01-12T08:31:06.580Z,8.47
2023-01-12T08:33:44.786Z,8.47
2023-01-12T08:36:25.071Z,8.50
2023-01-12T08:41:59.314Z,8.51
2023-01-12T08:44:50.761Z,8.52
2023-01-12T08:47:33.030Z,8.55
2023-01-12T08:50:21.099Z,8.55
2023-01-12T08:53:09.264Z,8.55
2023-01-12T08:55:50.295Z,8.54
2023-01-12T08:58:25.263Z,8.57
2023-01-12T09:01:03.640Z,8.59
2023-01-12T09:03:47.377Z,8.63
2023-01-12T09:06:54.167Z,8.65
2023-01-12T09:09:33.653Z,8.67
2023-01-12T09:12:10.077Z,8.71
2023-01-12T09:14:40.324Z,8.74
2023-01-12T09:17:17.983Z,8.73
2023-01-12T09:19:54.945Z,8.74
2023-01-12T09:22:34.225Z,8.76
2023-01-12T09:25:35.436Z,8.82
2023-01-12T09:28:22.796Z,8.81
2023-01-12T09:30:53.309Z,8.86
2023-01-12T09:33:37.579Z,8.91
2023-01-12T09:36:18.495Z,8.97
2023-01-12T09:38:59.294Z,9.01
2023-01-12T09:47:57.399Z,9.06
2023-01-12T09:50:44.625Z,9.11
2023-01-12T09:53:26.162Z,9.12
2023-01-12T09:56:22.248Z,9.14
2023-01-12T09:59:33.494Z,9.19
2023-01-12T10:02:17.062Z,9.19
2023-01-12T10:04:53.300Z,9.21
2023-01-12T10:07:30.234Z,9.24
2023-01-12T10:10:01.446Z,9.23
2023-01-12T10:12:50.856Z,9.25
2023-01-12T10:15:41.786Z,9.25
2023-01-12T10:18:47.533Z,9.23
2023-01-12T10:24:12.049Z,9.25
2023-01-12T10:27:04.353Z,9.26
2023-01-12T10:29:43.402Z,9.25
2023-01-12T10:35:09.285Z,9.23
2023-01-12T10:37:48.184Z,9.21
2023-01-12T10:40:43.189Z,9.27
2023-01-12T10:43:42.897Z,9.26
2023-01-12T10:46:31.114Z,9.26
2023-01-12T10:49:30.940Z,9.23
2023-01-12T10:52:22.450Z,9.24
2023-01-12T10:55:01.378Z,9.25
2023-01-12T10:57:30.479Z,9.25
2023-01-12T11:00:10.728Z,9.22
2023-01-12T11:02:51.836Z,9.29
2023-01-12T11:05:44.752Z,9.30
2023-01-12T11:08:23.801Z,9.34
2023-01-12T11:10:59.859Z,9.35
2023-01-12T11:13:38.937Z,9.36
2023-01-12T11:16:30.977Z,9.37
2023-01-12T11:19:15.216Z,9.37
2023-01-12T11:21:59.949Z,9.39
2023-01-12T11:24:46.006Z,9.40
2023-01-12T11:27:49.360Z,9.40
2023-01-12T11:30:41.912Z,9.44
2023-01-12T11:33:41.091Z,9.45
2023-01-12T11:36:24.202Z,9.43
2023-01-12T11:39:07.619Z,9.49
2023-01-12T11:42:10.493Z,9.48
2023-01-12T11:45:05.554Z,9.52
2023-01-12T11:47:53.124Z,9.54
2023-01-12T11:50:50.814Z,9.54
2023-01-12T11:53:31.636Z,9.53
2023-01-12T11:56:27.152Z,9.52
2023-01-12T11:59:04.229Z,9.55
2023-01-12T12:02:02.785Z,9.56
2023-01-12T12:05:23.881Z,9.57
2023-01-12T12:08:22.883Z,9.57
2023-01-12T12:11:29.019Z,9.60
2023-01-12T12:14:44.846Z,9.60
2023-01-12T12:17:48.019Z,9.59
2023-01-12T12:20:44.763Z,9.58
2023-01-12T12:23:56.602Z,9.58
2023-01-12T12:26:42.644Z,9.59
2023-01-12T12:29:36.355Z,9.60
2023-01-12T12:32:04.174Z,9.57
2023-01-12T12:34:38.180Z,9.59
2023-01-12T12:37:35.270Z,9.56
2023-01-12T12:40:38.111Z,9.59
2023-01-12T12:43:37.097Z,9.58
2023-01-12T12:47:00.288Z,9.58
2023-01-12T12:49:33.451Z,9.60
2023-01-12T12:52:32.375Z,9.58
2023-01-12T12:55:08.012Z,9.59
2023-01-12T12:58:02.629Z,9.61
2023-01-12T13:00:54.093Z,9.61
2023-01-12T13:03:52.640Z,9.62
2023-01-12T13:06:36.776Z,9.60
2023-01-12T13:09:13.312Z,9.63
2023-01-12T13:12:25.610Z,9.65
2023-01-12T13:15:23.976Z,9.65
2023-01-12T13:18:00.944Z,9.67
2023-01-12T13:20:59.249Z,9.65
2023-01-12T13:23:53.576Z,9.68
2023-01-12T13:26:41.989Z,9.68
2023-01-12T13:29:37.766Z,9.70
2023-01-12T13:32:35.978Z,9.71
2023-01-12T13:35:56.694Z,9.69
2023-01-12T13:38:46.945Z,9.71
2023-01-12T13:41:46.428Z,9.70
2023-01-12T13:44:56.749Z,9.72
2023-01-12T13:47:40.800Z,9.66
2023-01-12T13:50:35.980Z,9.72
2023-01-12T13:53:11.850Z,9.73
2023-01-12T13:55:46.828Z,9.73
2023-01-12T13:58:29.680Z,9.73
2023-01-12T14:01:02.078Z,9.72
2023-01-12T14:04:10.039Z,9.70
2023-01-12T14:07:12.964Z,9.70
2023-01-12T14:10:24.784Z,9.71
2023-01-12T14:13:32.155Z,9.70
2023-01-12T14:16:42.207Z,9.69
2023-01-12T14:19:40.291Z,9.69
2023-01-12T14:22:27.698Z,9.63
2023-01-12T14:25:14.950Z,9.64
2023-01-12T14:28:06.544Z,9.70
2023-01-12T14:30:35.547Z,9.69
2023-01-12T14:33:11.928Z,9.70
2023-01-12T14:35:47.756Z,9.69
2023-01-12T14:38:25.523Z,9.70
2023-01-12T14:41:07.422Z,9.69
2023-01-12T14:44:05.449Z,9.70
2023-01-12T14:46:40.001Z,9.69
2023-01-12T14:49:36.227Z,9.69
2023-01-12T14:52:49.098Z,9.70
2023-01-12T14:55:32.880Z,9.71
2023-01-12T14:58:17.660Z,9.70
2023-01-12T15:00:46.723Z,9.67
2023-01-12T15:03:43.840Z,9.70
2023-01-12T15:06:16.733Z,9.68
2023-01-12T15:09:11.532Z,9.69
2023-01-12T15:11:44.854Z,9.70
2023-01-12T15:14:39.032Z,9.71
2023-01-12T15:17:33.851Z,9.70
2023-01-12T15:20:28.334Z,9.68
2023-01-12T15:23:23.309Z,9.71
2023-01-12T15:25:51.000Z,9.66
2023-01-12T15:28:20.076Z,9.69
2023-01-12T15:30:55.752Z,9.70
2023-01-12T15:33:24.109Z,9.67
2023-01-12T15:35:59.447Z,9.67
2023-01-12T15:38:29.898Z,9.66
2023-01-12T15:41:04.886Z,9.66
2023-01-12T15:43:32.700Z,9.67
2023-01-12T15:46:20.049Z,9.65
2023-01-12T15:49:21.791Z,9.65
2023-01-12T15:52:08.291Z,9.63
2023-01-12T15:54:49.461Z,9.65
2023-01-12T15:57:32.393Z,9.62
2023-01-12T16:00:03.627Z,10.84
2023-01-12T16:02:47.726Z,14.88
2023-01-12T16:05:23.277Z,16.97
2023-01-12T16:07:58.627Z,12.74
2023-01-12T16:10:31.978Z,10.86
2023-01-12T16:13:11.924Z,10.20
2023-01-12T16:15:48.676Z,9.96
2023-01-12T16:18:29.665Z,9.85
2023-01-12T16:21:05.446Z,9.82
2023-01-12T16:23:50.034Z,9.81
2023-01-12T16:26:23.055Z,9.79
2023-01-12T16:29:01.364Z,9.78
2023-01-12T16:31:30.664Z,9.80
2023-01-12T16:34:14.864Z,9.78
2023-01-12T16:36:53.544Z,9.79
2023-01-12T16:39:36.148Z,9.80
2023-01-12T16:42:08.931Z,9.78
2023-01-12T16:44:49.003Z,9.76
2023-01-12T16:47:20.364Z,9.77
2023-01-12T16:50:01.198Z,9.82
2023-01-12T16:52:35.995Z,9.83
2023-01-12T16:55:16.914Z,9.84
2023-01-12T16:57:49.514Z,9.82
2023-01-12T17:00:31.052Z,9.77
2023-01-12T17:03:01.432Z,9.76
2023-01-12T17:05:37.274Z,9.78
2023-01-12T17:08:05.843Z,9.76
2023-01-12T17:10:43.116Z,9.77
2023-01-12T17:13:12.174Z,9.75
2023-01-12T17:15:51.149Z,9.76
2023-01-12T17:18:19.848Z,9.73
2023-01-12T17:21:17.799Z,9.72
2023-01-12T17:23:53.302Z,9.67
2023-01-12T17:26:29.832Z,9.70
2023-01-12T17:29:07.623Z,9.73
2023-01-12T17:31:38.198Z,9.74
2023-01-12T17:34:14.520Z,9.73
2023-01-12T17:36:47.021Z,9.73
2023-01-12T17:39:23.359Z,9.71
2023-01-12T17:42:10.672Z,9.71
2023-01-12T17:44:46.018Z,9.69
2023-01-12T17:47:49.016Z,9.70
2023-01-12T17:50:18.122Z,9.72
2023-01-12T17:53:02.626Z,9.70
2023-01-12T17:55:47.493Z,9.70
2023-01-12T17:58:25.497Z,9.70
2023-01-12T18:01:02.420Z,9.73
2023-01-12T18:03:32.060Z,9.71
2023-01-12T18:06:11.993Z,9.71
2023-01-12T18:08:51.466Z,9.70
2023-01-12T18:11:27.333Z,9.69
2023-01-12T18:13:55.843Z,9.71
2023-01-12T18:16:32.964Z,9.71
2023-01-12T18:19:08.109Z,9.71
2023-01-12T18:21:44.155Z,9.70
2023-01-12T18:24:16.297Z,9.68
2023-01-12T18:26:52.112Z,9.66
2023-01-12T18:29:19.995Z,9.69
2023-01-12T18:31:56.587Z,9.70
2023-01-12T18:34:27.927Z,9.70
2023-01-12T18:37:05.645Z,9.69
2023-01-12T18:39:40.841Z,9.68
2023-01-12T18:42:28.583Z,9.68
2023-01-12T18:45:22.887Z,9.69
2023-01-12T18:48:11.636Z,9.69
2023-01-12T18:51:05.041Z,9.67
2023-01-12T18:53:49.755Z,9.65
2023-01-12T18:56:23.135Z,9.70
2023-01-12T18:58:57.592Z,9.68
2023-01-12T19:01:28.378Z,9.70
2023-01-12T19:04:10.033Z,9.70
2023-01-12T19:06:46.794Z,9.69
2023-01-12T19:09:41.397Z,9.69
2023-01-12T19:12:18.375Z,9.70
2023-01-12T19:15:17.814Z,9.69
2023-01-12T19:17:52.977Z,9.68
2023-01-12T19:20:28.061Z,9.66
2023-01-12T19:23:21.375Z,9.66
2023-01-12T19:26:12.907Z,9.63
2023-01-12T19:28:47.637Z,9.65
2023-01-12T19:31:20.987Z,9.60
2023-01-12T19:33:55.943Z,9.58
2023-01-12T19:36:32.005Z,9.63
2023-01-12T19:39:12.790Z,9.65
2023-01-12T19:42:03.219Z,9.62
2023-01-12T19:44:38.677Z,9.63
2023-01-12T19:47:06.869Z,9.63
2023-01-12T19:49:42.210Z,9.62
2023-01-12T19:52:28.079Z,9.63
2023-01-12T19:55:04.457Z,9.64
2023-01-12T19:57:34.490Z,9.65
2023-01-12T20:00:08.829Z,9.64
2023-01-12T20:02:45.429Z,9.63
2023-01-12T20:05:18.406Z,9.62
2023-01-12T20:07:53.788Z,9.62
2023-01-12T20:10:24.006Z,9.60
2023-01-12T20:12:59.883Z,9.62
2023-01-12T20:15:39.524Z,9.61
2023-01-12T20:18:16.568Z,9.58
2023-01-12T20:20:45.504Z,9.55
2023-01-12T20:23:22.077Z,9.62
2023-01-12T20:25:56.957Z,9.65
2023-01-12T20:28:31.719Z,9.66
2023-01-12T20:31:00.410Z,9.65
2023-01-12T20:33:28.893Z,9.68
2023-01-12T20:36:03.968Z,9.67
2023-01-12T20:38:32.192Z,9.69
2023-01-12T20:41:10.933Z,9.69
2023-01-12T20:43:40.250Z,9.70
2023-01-12T20:46:20.976Z,9.71
2023-01-12T20:48:53.140Z,9.71
2023-01-12T20:51:29.709Z,9.72
2023-01-12T20:54:04.193Z,9.71
2023-01-12T20:56:41.312Z,9.67
2023-01-12T20:59:09.636Z,9.67
2023-01-12T21:01:45.099Z,9.66
2023-01-12T21:04:20.735Z,9.67
2023-01-12T21:06:50.913Z,9.68
2023-01-12T21:09:27.301Z,9.69
2023-01-12T21:11:55.734Z,9.69
2023-01-12T21:14:30.998Z,9.70
2023-01-12T21:17:19.253Z,9.72
2023-01-12T21:19:55.319Z,9.66
2023-01-12T21:22:33.757Z,9.64
2023-01-12T21:25:11.513Z,9.61
2023-01-12T21:27:47.464Z,9.57
2023-01-12T21:30:19.358Z,9.57
2023-01-12T21:32:58.802Z,9.53
2023-01-12T21:35:27.131Z,9.53
2023-01-12T21:38:03.268Z,9.54
2023-01-12T21:40:40.345Z,9.56
2023-01-12T21:43:10.894Z,9.56
2023-01-12T21:45:50.943Z,9.57
2023-01-12T21:48:28.028Z,9.61
2023-01-12T21:51:39.768Z,9.60
2023-01-12T21:54:21.174Z,9.60
2023-01-12T21:56:57.372Z,9.59
2023-01-12T21:59:33.150Z,9.60
2023-01-12T22:02:02.269Z,9.58
2023-01-12T22:04:38.801Z,9.60
2023-01-12T22:07:14.622Z,9.57
2023-01-12T22:09:43.393Z,9.59
2023-01-12T22:12:18.659Z,9.57
2023-01-12T22:14:50.739Z,9.61
2023-01-12T22:17:25.850Z,9.60
2023-01-12T22:20:02.885Z,9.57
2023-01-12T22:22:40.098Z,9.57
2023-01-12T22:25:11.427Z,9.55
2023-01-12T22:27:52.131Z,9.54
2023-01-12T22:30:35.219Z,9.53
2023-01-12T22:33:10.302Z,9.51
2023-01-12T22:35:39.524Z,9.49
2023-01-12T22:38:19.402Z,9.45
2023-01-12T22:40:47.434Z,9.43
2023-01-12T22:43:36.556Z,9.29
2023-01-12T22:46:15.289Z,9.13
2023-01-12T22:48:56.792Z,9.04
2023-01-12T22:51:43.783Z,8.97
2023-01-12T22:54:38.311Z,8.94
2023-01-12T22:57:17.751Z,8.94
2023-01-12T22:59:47.015Z,8.93
2023-01-12T23:02:41.493Z,8.93
2023-01-12T23:05:18.817Z,8.92
2023-01-12T23:07:57.427Z,8.94
2023-01-12T23:10:33.397Z,8.99
2023-01-12T23:13:24.483Z,8.98
2023-01-12T23:16:04.701Z,8.99
2023-01-12T23:18:48.926Z,9.01
2023-01-12T23:21:28.730Z,9.08
2023-01-12T23:24:13.235Z,9.07
2023-01-12T23:26:53.149Z,9.05
2023-01-12T23:29:40.945Z,9.05
2023-01-12T23:32:11.371Z,9.02
2023-01-12T23:34:50.705Z,8.96
2023-01-12T23:37:22.770Z,8.93
2023-01-12T23:40:02.193Z,8.90
2023-01-12T23:42:36.371Z,8.83
2023-01-12T23:45:16.797Z,8.84
2023-01-12T23:47:50.978Z,8.83
2023-01-12T23:50:30.484Z,8.80
2023-01-12T23:53:51.435Z,8.77
2023-01-12T23:56:31.511Z,8.72
2023-01-12T23:59:09.645Z,8.69
